sensor_id;sensor_type;location;lat;lon;timestamp;pressure;altitude;pressure_sealevel;temperature
27826;BMP280;15077;49.704;9.908;2022-10-16T00:01:58;97968.03;;;20.80
27826;BMP280;15077;49.704;9.908;2022-10-16T00:04:24;97970.47;;;20.82
27826;BMP280;15077;49.704;9.908;2022-10-16T00:06:50;97965.44;;;20.80
27826;BMP280;15077;49.704;9.908;2022-10-16T00:09:15;97960.97;;;20.82
27826;BMP280;15077;49.704;9.908;2022-10-16T00:11:41;97957.59;;;20.82
27826;BMP280;15077;49.704;9.908;2022-10-16T00:14:10;97964.22;;;20.84
27826;BMP280;15077;49.704;9.908;2022-10-16T00:16:36;97959.91;;;20.85
27826;BMP280;15077;49.704;9.908;2022-10-16T00:19:02;97951.34;;;20.84
27826;BMP280;15077;49.704;9.908;2022-10-16T00:21:30;97963.41;;;20.84
27826;BMP280;15077;49.704;9.908;2022-10-16T00:24:02;97961.66;;;20.84
27826;BMP280;15077;49.704;9.908;2022-10-16T00:26:31;97971.94;;;20.84
27826;BMP280;15077;49.704;9.908;2022-10-16T00:28:57;97959.06;;;20.84
27826;BMP280;15077;49.704;9.908;2022-10-16T00:31:23;97963.28;;;20.85
27826;BMP280;15077;49.704;9.908;2022-10-16T00:33:50;97950.41;;;20.85
27826;BMP280;15077;49.704;9.908;2022-10-16T00:36:18;97949.47;;;20.86
27826;BMP280;15077;49.704;9.908;2022-10-16T00:38:44;97952.06;;;20.86
27826;BMP280;15077;49.704;9.908;2022-10-16T00:41:14;97952.06;;;20.86
27826;BMP280;15077;49.704;9.908;2022-10-16T00:43:54;97956.25;;;20.87
27826;BMP280;15077;49.704;9.908;2022-10-16T00:46:25;97951.09;;;20.87
27826;BMP280;15077;49.704;9.908;2022-10-16T00:51:41;97952.06;;;20.86
27826;BMP280;15077;49.704;9.908;2022-10-16T00:54:12;97954.63;;;20.86
27826;BMP280;15077;49.704;9.908;2022-10-16T00:56:39;97964.81;;;20.88
27826;BMP280;15077;49.704;9.908;2022-10-16T00:59:14;97968.19;;;20.88
27826;BMP280;15077;49.704;9.908;2022-10-16T01:01:40;97967.50;;;20.86
27826;BMP280;15077;49.704;9.908;2022-10-16T01:04:06;97975.22;;;20.86
27826;BMP280;15077;49.704;9.908;2022-10-16T01:07:02;97966.78;;;20.84
27826;BMP280;15077;49.704;9.908;2022-10-16T01:12:36;97957.72;;;20.80
27826;BMP280;15077;49.704;9.908;2022-10-16T01:15:18;97968.16;;;20.79
27826;BMP280;15077;49.704;9.908;2022-10-16T01:17:49;97981.16;;;20.77
27826;BMP280;15077;49.704;9.908;2022-10-16T01:20:40;97986.31;;;20.77
27826;BMP280;15077;49.704;9.908;2022-10-16T01:23:18;97988.03;;;20.77
27826;BMP280;15077;49.704;9.908;2022-10-16T01:28:49;97986.72;;;20.82
27826;BMP280;15077;49.704;9.908;2022-10-16T01:31:19;97989.97;;;20.84
27826;BMP280;15077;49.704;9.908;2022-10-16T01:33:52;97993.94;;;20.88
27826;BMP280;15077;49.704;9.908;2022-10-16T01:36:23;97994.63;;;20.90
27826;BMP280;15077;49.704;9.908;2022-10-16T01:38:52;97988.41;;;20.93
27826;BMP280;15077;49.704;9.908;2022-10-16T01:41:30;97994.25;;;20.94
27826;BMP280;15077;49.704;9.908;2022-10-16T01:46:30;97995.75;;;20.97
27826;BMP280;15077;49.704;9.908;2022-10-16T01:48:57;98006.06;;;20.97
27826;BMP280;15077;49.704;9.908;2022-10-16T01:51:24;98007.44;;;21.01
27826;BMP280;15077;49.704;9.908;2022-10-16T01:53:53;98011.63;;;21.02
27826;BMP280;15077;49.704;9.908;2022-10-16T01:56:21;98008.94;;;21.03
27826;BMP280;15077;49.704;9.908;2022-10-16T01:58:55;98007.06;;;21.05
27826;BMP280;15077;49.704;9.908;2022-10-16T02:01:24;98008.56;;;21.08
27826;BMP280;15077;49.704;9.908;2022-10-16T02:03:53;97998.25;;;21.08
27826;BMP280;15077;49.704;9.908;2022-10-16T02:06:20;98004.09;;;21.10
27826;BMP280;15077;49.704;9.908;2022-10-16T02:08:47;98003.13;;;21.11
27826;BMP280;15077;49.704;9.908;2022-10-16T02:11:12;97987.53;;;21.12
27826;BMP280;15077;49.704;9.908;2022-10-16T02:13:42;97993.41;;;21.14
27826;BMP280;15077;49.704;9.908;2022-10-16T02:16:11;97998.56;;;21.14
27826;BMP280;15077;49.704;9.908;2022-10-16T02:18:38;98001.81;;;21.16
27826;BMP280;15077;49.704;9.908;2022-10-16T02:21:16;98001.81;;;21.16
27826;BMP280;15077;49.704;9.908;2022-10-16T02:23:51;97998.31;;;21.17
27826;BMP280;15077;49.704;9.908;2022-10-16T02:26:29;97994.75;;;21.18
27826;BMP280;15077;49.704;9.908;2022-10-16T02:29:02;97995.59;;;21.19
27826;BMP280;15077;49.704;9.908;2022-10-16T02:31:33;97995.59;;;21.19
27826;BMP280;15077;49.704;9.908;2022-10-16T02:34:02;97996.41;;;21.19
27826;BMP280;15077;49.704;9.908;2022-10-16T02:36:31;98006.72;;;21.19
27826;BMP280;15077;49.704;9.908;2022-10-16T02:38:58;98005.91;;;21.19
27826;BMP280;15077;49.704;9.908;2022-10-16T02:41:26;98005.91;;;21.19
27826;BMP280;15077;49.704;9.908;2022-10-16T02:43:52;98009.28;;;21.19
27826;BMP280;15077;49.704;9.908;2022-10-16T02:46:20;98012.94;;;21.17
27826;BMP280;15077;49.704;9.908;2022-10-16T02:48:46;98016.47;;;21.16
27826;BMP280;15077;49.704;9.908;2022-10-16T02:51:12;98015.78;;;21.14
27826;BMP280;15077;49.704;9.908;2022-10-16T02:53:38;98016.03;;;21.11
27826;BMP280;15077;49.704;9.908;2022-10-16T02:56:04;98014.41;;;21.10
27826;BMP280;15077;49.704;9.908;2022-10-16T02:58:29;98008.56;;;21.08
27826;BMP280;15077;49.704;9.908;2022-10-16T03:00:55;98015.59;;;21.06
27826;BMP280;15077;49.704;9.908;2022-10-16T03:03:21;98007.19;;;21.04
27826;BMP280;15077;49.704;9.908;2022-10-16T03:05:47;98014.22;;;21.02
27826;BMP280;15077;49.704;9.908;2022-10-16T03:08:13;98005.94;;;20.98
27826;BMP280;15077;49.704;9.908;2022-10-16T03:10:38;98003.50;;;20.97
27826;BMP280;15077;49.704;9.908;2022-10-16T03:13:04;98007.97;;;20.95
27826;BMP280;15077;49.704;9.908;2022-10-16T03:15:30;98000.38;;;20.94
27826;BMP280;15077;49.704;9.908;2022-10-16T03:17:59;98003.06;;;20.92
27826;BMP280;15077;49.704;9.908;2022-10-16T03:20:25;97982.72;;;20.89
27826;BMP280;15077;49.704;9.908;2022-10-16T03:22:52;97994.88;;;20.87
27826;BMP280;15077;49.704;9.908;2022-10-16T03:25:17;97996.78;;;20.85
27826;BMP280;15077;49.704;9.908;2022-10-16T03:27:43;97992.56;;;20.84
27826;BMP280;15077;49.704;9.908;2022-10-16T03:30:09;98003.00;;;20.83
27826;BMP280;15077;49.704;9.908;2022-10-16T03:32:35;98002.19;;;20.82
27826;BMP280;15077;49.704;9.908;2022-10-16T03:35:00;98005.69;;;20.81
27826;BMP280;15077;49.704;9.908;2022-10-16T03:37:26;98004.06;;;20.80
27826;BMP280;15077;49.704;9.908;2022-10-16T03:39:52;98014.38;;;20.80
27826;BMP280;15077;49.704;9.908;2022-10-16T03:42:18;98012.75;;;20.79
27826;BMP280;15077;49.704;9.908;2022-10-16T03:44:44;97999.88;;;20.79
27826;BMP280;15077;49.704;9.908;2022-10-16T03:47:10;98001.75;;;20.77
27826;BMP280;15077;49.704;9.908;2022-10-16T03:49:36;98012.06;;;20.77
27826;BMP280;15077;49.704;9.908;2022-10-16T03:52:01;98001.03;;;20.75
27826;BMP280;15077;49.704;9.908;2022-10-16T03:54:27;98004.59;;;20.74
27826;BMP280;15077;49.704;9.908;2022-10-16T03:56:53;98014.97;;;20.73
27826;BMP280;15077;49.704;9.908;2022-10-16T03:59:18;98004.00;;;20.71
27826;BMP280;15077;49.704;9.908;2022-10-16T04:01:44;98018.66;;;20.70
27826;BMP280;15077;49.704;9.908;2022-10-16T04:04:09;98015.09;;;20.71
27826;BMP280;15077;49.704;9.908;2022-10-16T04:06:35;98015.09;;;20.71
27826;BMP280;15077;49.704;9.908;2022-10-16T04:09:01;98018.66;;;20.70
27826;BMP280;15077;49.704;9.908;2022-10-16T04:11:27;98021.34;;;20.69
27826;BMP280;15077;49.704;9.908;2022-10-16T04:13:53;98019.72;;;20.68
27826;BMP280;15077;49.704;9.908;2022-10-16T04:16:19;98020.50;;;20.68
27826;BMP280;15077;49.704;9.908;2022-10-16T04:18:44;98023.94;;;20.69
27826;BMP280;15077;49.704;9.908;2022-10-16T04:21:10;98027.44;;;20.68
27826;BMP280;15077;49.704;9.908;2022-10-16T04:23:35;98033.38;;;20.68
27826;BMP280;15077;49.704;9.908;2022-10-16T04:26:01;98038.53;;;20.68
27826;BMP280;15077;49.704;9.908;2022-10-16T04:28:28;98035.97;;;20.68
27826;BMP280;15077;49.704;9.908;2022-10-16T04:30:53;98039.25;;;20.70
27826;BMP280;15077;49.704;9.908;2022-10-16T04:33:19;98034.09;;;20.70
27826;BMP280;15077;49.704;9.908;2022-10-16T04:35:45;98038.28;;;20.71
27826;BMP280;15077;49.704;9.908;2022-10-16T04:38:11;98034.09;;;20.70
27826;BMP280;15077;49.704;9.908;2022-10-16T04:40:36;98055.50;;;20.71
27826;BMP280;15077;49.704;9.908;2022-10-16T04:43:03;98046.00;;;20.71
27826;BMP280;15077;49.704;9.908;2022-10-16T04:45:29;98044.41;;;20.70
27826;BMP280;15077;49.704;9.908;2022-10-16T04:47:58;98048.59;;;20.71
27826;BMP280;15077;49.704;9.908;2022-10-16T04:50:24;98056.31;;;20.71
27826;BMP280;15077;49.704;9.908;2022-10-16T04:52:50;98071.56;;;20.74
27826;BMP280;15077;49.704;9.908;2022-10-16T04:55:15;98070.59;;;20.75
27826;BMP280;15077;49.704;9.908;2022-10-16T04:57:41;98073.16;;;20.75
27826;BMP280;15077;49.704;9.908;2022-10-16T05:00:08;98071.56;;;20.74
27826;BMP280;15077;49.704;9.908;2022-10-16T05:02:34;98068.03;;;20.75
27826;BMP280;15077;49.704;9.908;2022-10-16T05:04:59;98076.47;;;20.77
27826;BMP280;15077;49.704;9.908;2022-10-16T05:07:25;98059.22;;;20.78
27826;BMP280;15077;49.704;9.908;2022-10-16T05:09:51;98067.78;;;20.78
27826;BMP280;15077;49.704;9.908;2022-10-16T05:12:16;98056.53;;;20.79
27826;BMP280;15077;49.704;9.908;2022-10-16T05:14:42;98060.75;;;20.80
27826;BMP280;15077;49.704;9.908;2022-10-16T05:17:08;98060.75;;;20.80
27826;BMP280;15077;49.704;9.908;2022-10-16T05:19:33;98080.41;;;20.81
27826;BMP280;15077;49.704;9.908;2022-10-16T05:21:59;98084.75;;;20.81
27826;BMP280;15077;49.704;9.908;2022-10-16T05:24:25;98082.16;;;20.81
27826;BMP280;15077;49.704;9.908;2022-10-16T05:26:50;98077.00;;;20.81
27826;BMP280;15077;49.704;9.908;2022-10-16T05:29:16;98080.41;;;20.81
27826;BMP280;15077;49.704;9.908;2022-10-16T05:31:42;98064.81;;;20.83
27826;BMP280;15077;49.704;9.908;2022-10-16T05:34:08;98064.00;;;20.82
27826;BMP280;15077;49.704;9.908;2022-10-16T05:36:33;98063.06;;;20.83
27826;BMP280;15077;49.704;9.908;2022-10-16T05:38:59;98077.56;;;20.84
27826;BMP280;15077;49.704;9.908;2022-10-16T05:41:25;98075.97;;;20.83
27826;BMP280;15077;49.704;9.908;2022-10-16T05:43:52;98070.81;;;20.83
27826;BMP280;15077;49.704;9.908;2022-10-16T05:46:19;98078.66;;;20.82
27826;BMP280;15077;49.704;9.908;2022-10-16T05:48:45;98078.78;;;20.80
27826;BMP280;15077;49.704;9.908;2022-10-16T05:51:12;98073.88;;;20.77
27826;BMP280;15077;49.704;9.908;2022-10-16T05:53:39;98082.53;;;20.76
27826;BMP280;15077;49.704;9.908;2022-10-16T05:56:06;98079.97;;;20.76
27826;BMP280;15077;49.704;9.908;2022-10-16T05:58:36;98069.66;;;20.76
27826;BMP280;15077;49.704;9.908;2022-10-16T06:03:35;98082.53;;;20.76
27826;BMP280;15077;49.704;9.908;2022-10-16T06:06:27;98091.19;;;20.75
27826;BMP280;15077;49.704;9.908;2022-10-16T06:08:54;98111.81;;;20.75
27826;BMP280;15077;49.704;9.908;2022-10-16T06:11:26;98109.22;;;20.75
27826;BMP280;15077;49.704;9.908;2022-10-16T06:13:54;98098.94;;;20.75
27826;BMP280;15077;49.704;9.908;2022-10-16T06:16:22;98098.94;;;20.75
27826;BMP280;15077;49.704;9.908;2022-10-16T06:18:53;98097.31;;;20.74
27826;BMP280;15077;49.704;9.908;2022-10-16T06:21:21;98100.81;;;20.73
27826;BMP280;15077;49.704;9.908;2022-10-16T06:23:48;98101.75;;;20.72
27826;BMP280;15077;49.704;9.908;2022-10-16T06:26:16;98099.97;;;20.73
27826;BMP280;15077;49.704;9.908;2022-10-16T06:28:42;98114.63;;;20.72
27826;BMP280;15077;49.704;9.908;2022-10-16T06:31:09;98113.81;;;20.72
27826;BMP280;15077;49.704;9.908;2022-10-16T06:33:36;98112.97;;;20.71
27826;BMP280;15077;49.704;9.908;2022-10-16T06:36:07;98112.31;;;20.69
27826;BMP280;15077;49.704;9.908;2022-10-16T06:38:34;98118.38;;;20.68
27826;BMP280;15077;49.704;9.908;2022-10-16T06:41:00;98125.19;;;20.69
27826;BMP280;15077;49.704;9.908;2022-10-16T06:43:26;98129.41;;;20.70
27826;BMP280;15077;49.704;9.908;2022-10-16T06:48:19;98133.59;;;20.71
27826;BMP280;15077;49.704;9.908;2022-10-16T06:50:55;98125.06;;;20.71
27826;BMP280;15077;49.704;9.908;2022-10-16T06:53:20;98124.13;;;20.72
27826;BMP280;15077;49.704;9.908;2022-10-16T06:55:46;98140.38;;;20.72
27826;BMP280;15077;49.704;9.908;2022-10-16T06:58:12;98137.81;;;20.72
27826;BMP280;15077;49.704;9.908;2022-10-16T07:00:37;98149.03;;;20.71
27826;BMP280;15077;49.704;9.908;2022-10-16T07:03:03;98143.88;;;20.71
27826;BMP280;15077;49.704;9.908;2022-10-16T07:05:29;98142.03;;;20.73
27826;BMP280;15077;49.704;9.908;2022-10-16T07:07:54;98151.28;;;20.76
27826;BMP280;15077;49.704;9.908;2022-10-16T07:10:20;98148.59;;;20.77
27826;BMP280;15077;49.704;9.908;2022-10-16T07:12:49;98157.00;;;20.79
27826;BMP280;15077;49.704;9.908;2022-10-16T07:15:15;98162.16;;;20.79
27826;BMP280;15077;49.704;9.908;2022-10-16T07:17:41;98177.47;;;20.81
27826;BMP280;15077;49.704;9.908;2022-10-16T07:20:07;98189.56;;;20.80
27826;BMP280;15077;49.704;9.908;2022-10-16T07:22:32;98194.47;;;20.83
27826;BMP280;15077;49.704;9.908;2022-10-16T07:24:58;98199.63;;;20.83
27826;BMP280;15077;49.704;9.908;2022-10-16T07:27:24;98208.84;;;20.86
27826;BMP280;15077;49.704;9.908;2022-10-16T07:29:50;98201.22;;;20.84
27826;BMP280;15077;49.704;9.908;2022-10-16T07:32:15;98202.63;;;20.88
27826;BMP280;15077;49.704;9.908;2022-10-16T07:34:41;98196.53;;;20.89
27826;BMP280;15077;49.704;9.908;2022-10-16T07:37:07;98189.38;;;20.93
27826;BMP280;15077;49.704;9.908;2022-10-16T07:39:33;98187.38;;;20.96
27826;BMP280;15077;49.704;9.908;2022-10-16T07:41:59;98188.06;;;20.98
27826;BMP280;15077;49.704;9.908;2022-10-16T07:44:24;98196.25;;;21.03
27826;BMP280;15077;49.704;9.908;2022-10-16T07:46:50;98200.34;;;21.05
27826;BMP280;15077;49.704;9.908;2022-10-16T07:49:16;98201.16;;;21.06
27826;BMP280;15077;49.704;9.908;2022-10-16T07:51:41;98200.09;;;21.08
27826;BMP280;15077;49.704;9.908;2022-10-16T07:54:08;98203.38;;;21.10
27826;BMP280;15077;49.704;9.908;2022-10-16T07:56:34;98205.69;;;21.13
27826;BMP280;15077;49.704;9.908;2022-10-16T07:59:00;98220.91;;;21.16
27826;BMP280;15077;49.704;9.908;2022-10-16T08:01:26;98218.91;;;21.20
27826;BMP280;15077;49.704;9.908;2022-10-16T08:03:52;98221.25;;;21.23
27826;BMP280;15077;49.704;9.908;2022-10-16T08:06:20;98209.72;;;21.27
27826;BMP280;15077;49.704;9.908;2022-10-16T08:08:45;98215.47;;;21.30
27826;BMP280;15077;49.704;9.908;2022-10-16T08:11:11;98222.13;;;21.33
27826;BMP280;15077;49.704;9.908;2022-10-16T08:13:37;98222.59;;;21.38
27826;BMP280;15077;49.704;9.908;2022-10-16T08:16:03;98226.53;;;21.42
27826;BMP280;15077;49.704;9.908;2022-10-16T08:18:35;98227.91;;;21.45
27826;BMP280;15077;49.704;9.908;2022-10-16T08:21:02;98229.34;;;21.49
27826;BMP280;15077;49.704;9.908;2022-10-16T08:23:28;98232.47;;;21.53
27826;BMP280;15077;49.704;9.908;2022-10-16T08:25:55;98239.84;;;21.57
27826;BMP280;15077;49.704;9.908;2022-10-16T08:28:21;98240.28;;;21.62
27826;BMP280;15077;49.704;9.908;2022-10-16T08:30:47;98238.28;;;21.66
27826;BMP280;15077;49.704;9.908;2022-10-16T08:33:13;98244.81;;;21.70
27826;BMP280;15077;49.704;9.908;2022-10-16T08:35:39;98242.81;;;21.73
27826;BMP280;15077;49.704;9.908;2022-10-16T08:38:05;98257.22;;;21.76
27826;BMP280;15077;49.704;9.908;2022-10-16T08:40:33;98257.09;;;21.77
27826;BMP280;15077;49.704;9.908;2022-10-16T08:45:43;98260.22;;;21.81
27826;BMP280;15077;49.704;9.908;2022-10-16T08:48:17;98273.94;;;21.81
27826;BMP280;15077;49.704;9.908;2022-10-16T08:50:47;98272.06;;;21.83
27826;BMP280;15077;49.704;9.908;2022-10-16T08:53:28;98269.38;;;21.85
27826;BMP280;15077;49.704;9.908;2022-10-16T08:55:55;98277.91;;;21.85
27826;BMP280;15077;49.704;9.908;2022-10-16T08:58:25;98267.47;;;21.87
27826;BMP280;15077;49.704;9.908;2022-10-16T09:00:55;98272.38;;;21.90
27826;BMP280;15077;49.704;9.908;2022-10-16T09:04:04;98266.16;;;21.92
27826;BMP280;15077;49.704;9.908;2022-10-16T09:06:46;98266.81;;;21.94
27826;BMP280;15077;49.704;9.908;2022-10-16T09:20:18;98287.38;;;22.05
27826;BMP280;15077;49.704;9.908;2022-10-16T09:22:45;98297.31;;;22.09
27826;BMP280;15077;49.704;9.908;2022-10-16T09:25:20;98288.53;;;22.12
27826;BMP280;15077;49.704;9.908;2022-10-16T09:27:50;98291.81;;;22.14
27826;BMP280;15077;49.704;9.908;2022-10-16T09:30:19;98300.25;;;22.16
27826;BMP280;15077;49.704;9.908;2022-10-16T09:32:47;98299.97;;;22.19
27826;BMP280;15077;49.704;9.908;2022-10-16T09:35:16;98302.44;;;22.20
27826;BMP280;15077;49.704;9.908;2022-10-16T09:37:45;98298.81;;;22.23
27826;BMP280;15077;49.704;9.908;2022-10-16T09:40:23;98293.53;;;22.24
27826;BMP280;15077;49.704;9.908;2022-10-16T09:42:52;98295.00;;;22.27
27826;BMP280;15077;49.704;9.908;2022-10-16T09:45:22;98293.16;;;22.29
27826;BMP280;15077;49.704;9.908;2022-10-16T09:47:49;98302.25;;;22.33
27826;BMP280;15077;49.704;9.908;2022-10-16T09:50:27;98305.53;;;22.35
27826;BMP280;15077;49.704;9.908;2022-10-16T09:53:10;98305.41;;;22.36
27826;BMP280;15077;49.704;9.908;2022-10-16T09:55:47;98314.78;;;22.37
27826;BMP280;15077;49.704;9.908;2022-10-16T09:58:14;98305.03;;;22.41
27826;BMP280;15077;49.704;9.908;2022-10-16T10:00:41;98306.63;;;22.42
27826;BMP280;15077;49.704;9.908;2022-10-16T10:03:11;98299.59;;;22.43
27826;BMP280;15077;49.704;9.908;2022-10-16T10:05:39;98304.50;;;22.46
27826;BMP280;15077;49.704;9.908;2022-10-16T10:08:05;98314.56;;;22.49
27826;BMP280;15077;49.704;9.908;2022-10-16T10:10:33;98311.03;;;22.50
27826;BMP280;15077;49.704;9.908;2022-10-16T10:13:00;98317.56;;;22.54
27826;BMP280;15077;49.704;9.908;2022-10-16T10:15:32;98309.56;;;22.57
27826;BMP280;15077;49.704;9.908;2022-10-16T10:17:58;98317.63;;;22.64
27826;BMP280;15077;49.704;9.908;2022-10-16T10:20:29;98318.84;;;22.69
27826;BMP280;15077;49.704;9.908;2022-10-16T10:22:56;98324.47;;;22.74
27826;BMP280;15077;49.704;9.908;2022-10-16T10:31:13;98352.09;;;22.83
27826;BMP280;15077;49.704;9.908;2022-10-16T10:34:11;98410.84;;;22.81
27826;BMP280;15077;49.704;9.908;2022-10-16T10:36:47;98365.56;;;22.77
27826;BMP280;15077;49.704;9.908;2022-10-16T10:42:20;98386.75;;;22.71
27826;BMP280;15077;49.704;9.908;2022-10-16T10:45:11;98370.41;;;22.71
27826;BMP280;15077;49.704;9.908;2022-10-16T10:50:33;98366.50;;;22.76
27826;BMP280;15077;49.704;9.908;2022-10-16T10:53:06;98361.72;;;22.81
27826;BMP280;15077;49.704;9.908;2022-10-16T11:06:24;98366.69;;;23.33
27826;BMP280;15077;49.704;9.908;2022-10-16T11:08:55;98374.06;;;23.46
27826;BMP280;15077;49.704;9.908;2022-10-16T11:11:38;98373.53;;;23.62
27826;BMP280;15077;49.704;9.908;2022-10-16T11:14:22;98371.78;;;23.81
27826;BMP280;15077;49.704;9.908;2022-10-16T11:16:56;98362.41;;;23.99
27826;BMP280;15077;49.704;9.908;2022-10-16T11:22:09;98357.56;;;24.32
27826;BMP280;15077;49.704;9.908;2022-10-16T11:27:44;98357.22;;;24.63
27826;BMP280;15077;49.704;9.908;2022-10-16T11:30:25;98344.75;;;24.76
27826;BMP280;15077;49.704;9.908;2022-10-16T11:33:20;98343.16;;;24.92
27826;BMP280;15077;49.704;9.908;2022-10-16T11:38:30;98345.78;;;25.19
27826;BMP280;15077;49.704;9.908;2022-10-16T11:41:04;98342.16;;;25.30
27826;BMP280;15077;49.704;9.908;2022-10-16T11:43:41;98333.22;;;25.41
27826;BMP280;15077;49.704;9.908;2022-10-16T11:46:12;98334.09;;;25.50
27826;BMP280;15077;49.704;9.908;2022-10-16T11:49:00;98341.13;;;25.57
27826;BMP280;15077;49.704;9.908;2022-10-16T11:51:43;98327.28;;;25.66
27826;BMP280;15077;49.704;9.908;2022-10-16T11:56:38;98332.47;;;25.84
27826;BMP280;15077;49.704;9.908;2022-10-16T11:59:11;98325.88;;;25.89
27826;BMP280;15077;49.704;9.908;2022-10-16T12:02:07;98328.81;;;25.94
27826;BMP280;15077;49.704;9.908;2022-10-16T12:04:43;98324.66;;;26.01
27826;BMP280;15077;49.704;9.908;2022-10-16T12:07:22;98321.63;;;26.05
27826;BMP280;15077;49.704;9.908;2022-10-16T12:09:53;98316.78;;;26.10
27826;BMP280;15077;49.704;9.908;2022-10-16T12:15:01;98311.94;;;26.15
27826;BMP280;15077;49.704;9.908;2022-10-16T12:17:38;98317.66;;;26.19
27826;BMP280;15077;49.704;9.908;2022-10-16T12:22:56;98310.34;;;26.22
27826;BMP280;15077;49.704;9.908;2022-10-16T12:28:18;98326.09;;;26.21
27826;BMP280;15077;49.704;9.908;2022-10-16T12:30:59;98326.09;;;26.21
27826;BMP280;15077;49.704;9.908;2022-10-16T12:33:28;98319.78;;;26.23
27826;BMP280;15077;49.704;9.908;2022-10-16T12:35:55;98321.91;;;26.28
27826;BMP280;15077;49.704;9.908;2022-10-16T12:38:26;98325.22;;;26.30
27826;BMP280;15077;49.704;9.908;2022-10-16T12:41:04;98335.31;;;26.33
27826;BMP280;15077;49.704;9.908;2022-10-16T12:43:41;98330.78;;;26.35
27826;BMP280;15077;49.704;9.908;2022-10-16T12:48:42;98334.19;;;26.35
27826;BMP280;15077;49.704;9.908;2022-10-16T12:54:03;98338.75;;;26.41
27826;BMP280;15077;49.704;9.908;2022-10-16T13:10:10;98335.53;;;26.47
27826;BMP280;15077;49.704;9.908;2022-10-16T13:21:29;98346.41;;;26.42
27826;BMP280;15077;49.704;9.908;2022-10-16T13:29:54;98354.28;;;26.50
27826;BMP280;15077;49.704;9.908;2022-10-16T13:32:24;98344.38;;;26.54
27826;BMP280;15077;49.704;9.908;2022-10-16T13:34:50;98332.16;;;26.54
27826;BMP280;15077;49.704;9.908;2022-10-16T13:37:22;98338.06;;;26.56
27826;BMP280;15077;49.704;9.908;2022-10-16T13:39:48;98343.09;;;26.58
27826;BMP280;15077;49.704;9.908;2022-10-16T13:42:27;98341.63;;;26.55
27826;BMP280;15077;49.704;9.908;2022-10-16T13:44:55;98348.59;;;26.55
27826;BMP280;15077;49.704;9.908;2022-10-16T13:47:26;98344.53;;;26.52
27826;BMP280;15077;49.704;9.908;2022-10-16T13:50:02;98353.44;;;26.50
27826;BMP280;15077;49.704;9.908;2022-10-16T13:52:29;98348.53;;;26.47
27826;BMP280;15077;49.704;9.908;2022-10-16T13:54:55;98352.44;;;26.43
27826;BMP280;15077;49.704;9.908;2022-10-16T13:57:23;98350.31;;;26.39
27826;BMP280;15077;49.704;9.908;2022-10-16T13:59:49;98361.81;;;26.36
27826;BMP280;15077;49.704;9.908;2022-10-16T14:02:19;98362.91;;;26.34
27826;BMP280;15077;49.704;9.908;2022-10-16T14:04:48;98363.22;;;26.31
27826;BMP280;15077;49.704;9.908;2022-10-16T14:07:21;98360.91;;;26.28
27826;BMP280;15077;49.704;9.908;2022-10-16T14:09:50;98362.84;;;26.26
27826;BMP280;15077;49.704;9.908;2022-10-16T14:12:17;98369.97;;;26.24
27826;BMP280;15077;49.704;9.908;2022-10-16T14:14:46;98372.72;;;26.22
27826;BMP280;15077;49.704;9.908;2022-10-16T14:17:18;98377.09;;;26.22
27826;BMP280;15077;49.704;9.908;2022-10-16T14:19:49;98368.50;;;26.21
27826;BMP280;15077;49.704;9.908;2022-10-16T14:22:27;98366.84;;;26.20
27826;BMP280;15077;49.704;9.908;2022-10-16T14:24:55;98374.81;;;26.19
27826;BMP280;15077;49.704;9.908;2022-10-16T14:27:33;98367.97;;;26.18
27826;BMP280;15077;49.704;9.908;2022-10-16T14:32:34;98371.56;;;26.17
27826;BMP280;15077;49.704;9.908;2022-10-16T14:34:59;98367.31;;;26.16
27826;BMP280;15077;49.704;9.908;2022-10-16T14:37:27;98375.09;;;26.16
27826;BMP280;15077;49.704;9.908;2022-10-16T14:39:54;98371.84;;;26.14
27826;BMP280;15077;49.704;9.908;2022-10-16T14:42:22;98370.22;;;26.13
27826;BMP280;15077;49.704;9.908;2022-10-16T14:44:53;98364.22;;;26.12
27826;BMP280;15077;49.704;9.908;2022-10-16T14:47:22;98368.56;;;26.12
27826;BMP280;15077;49.704;9.908;2022-10-16T14:49:51;98361.78;;;26.11
27826;BMP280;15077;49.704;9.908;2022-10-16T14:52:17;98364.50;;;26.09
27826;BMP280;15077;49.704;9.908;2022-10-16T14:54:43;98372.47;;;26.08
27826;BMP280;15077;49.704;9.908;2022-10-16T14:57:18;98376.00;;;26.07
27826;BMP280;15077;49.704;9.908;2022-10-16T14:59:45;98385.22;;;26.01
27826;BMP280;15077;49.704;9.908;2022-10-16T15:04:48;98387.31;;;25.98
27826;BMP280;15077;49.704;9.908;2022-10-16T15:07:14;98377.22;;;25.95
27826;BMP280;15077;49.704;9.908;2022-10-16T15:09:40;98385.00;;;25.95
27826;BMP280;15077;49.704;9.908;2022-10-16T15:12:05;98375.56;;;25.94
27826;BMP280;15077;49.704;9.908;2022-10-16T15:14:31;98380.28;;;25.90
27826;BMP280;15077;49.704;9.908;2022-10-16T15:16:57;98381.06;;;25.91
27826;BMP280;15077;49.704;9.908;2022-10-16T15:19:23;98384.34;;;25.93
27826;BMP280;15077;49.704;9.908;2022-10-16T15:21:49;98387.59;;;25.95
27826;BMP280;15077;49.704;9.908;2022-10-16T15:24:15;98386.66;;;25.96
27826;BMP280;15077;49.704;9.908;2022-10-16T15:26:41;98385.97;;;25.94
27826;BMP280;15077;49.704;9.908;2022-10-16T15:29:07;98390.50;;;25.92
27826;BMP280;15077;49.704;9.908;2022-10-16T15:31:33;98382.06;;;25.90
27826;BMP280;15077;49.704;9.908;2022-10-16T15:33:59;98396.00;;;25.89
27826;BMP280;15077;49.704;9.908;2022-10-16T15:36:32;98386.06;;;25.85
27826;BMP280;15077;49.704;9.908;2022-10-16T15:39:03;98387.16;;;25.82
27826;BMP280;15077;49.704;9.908;2022-10-16T15:41:29;98372.84;;;25.78
27826;BMP280;15077;49.704;9.908;2022-10-16T15:43:55;98368.94;;;25.74
27826;BMP280;15077;49.704;9.908;2022-10-16T15:46:22;98367.94;;;25.75
27826;BMP280;15077;49.704;9.908;2022-10-16T15:48:50;98373.66;;;25.79
27826;BMP280;15077;49.704;9.908;2022-10-16T15:51:17;98377.88;;;25.80
27826;BMP280;15077;49.704;9.908;2022-10-16T15:53:43;98376.94;;;25.81
27826;BMP280;15077;49.704;9.908;2022-10-16T15:56:12;98366.69;;;25.79
27826;BMP280;15077;49.704;9.908;2022-10-16T15:58:39;98366.84;;;25.78
27826;BMP280;15077;49.704;9.908;2022-10-16T16:01:05;98371.53;;;25.74
27826;BMP280;15077;49.704;9.908;2022-10-16T16:03:32;98370.84;;;25.72
27826;BMP280;15077;49.704;9.908;2022-10-16T16:06:02;98371.81;;;25.71
27826;BMP280;15077;49.704;9.908;2022-10-16T16:08:33;98371.97;;;25.70
27826;BMP280;15077;49.704;9.908;2022-10-16T16:11:09;98366.78;;;25.70